Granger, Iowa
Current Conditions -  °F | °C
As of 9:35 AM on Thursday 23 Oct 2014 (Local Time) from KIKV Reporting Station
Overcast Overcast  
Wind Chill: 55°   Ceiling: 800
Heat Index: 55°   Visibility: 10mi
Dew Point: 54°   Wind: 5mph
Humidity: 94%   Direction: 180°S
Pressure: 30.04"   Gusts: NA
Location:  41.76°N, 93.82°W
Report Text: KIKV 231435Z AUTO 18004KT 10SM BKN008 BKN032 OVC060 13/12 A3004 RMK AO2
Loading
Personal Weather Stations






























Interactive Weather Map New forecast layout! Learn more

10-Day Weather Forecast

Advertisements
Track Severe Weather on mobile